createdAt,value
2017-06-17T00:00:16.346Z,63.86
2017-06-17T00:01:16.342Z,64.05
2017-06-17T00:02:16.636Z,63.76
2017-06-17T00:03:16.630Z,64.05
2017-06-17T00:04:16.625Z,63.67
2017-06-17T00:08:16.601Z,63.86
2017-06-17T00:09:16.292Z,63.86
2017-06-17T00:10:16.590Z,63.86
2017-06-17T00:11:16.585Z,63.86
2017-06-17T00:12:16.274Z,63.86
2017-06-17T00:13:16.575Z,63.96
2017-06-17T00:14:16.566Z,64.05
2017-06-17T00:15:16.257Z,64.62
2017-06-17T00:16:16.250Z,64.15
2017-06-17T00:17:16.550Z,64.53
2017-06-17T00:18:16.545Z,64.34
2017-06-17T00:19:16.233Z,64.34
2017-06-17T00:20:16.227Z,64.25
2017-06-17T00:21:16.221Z,64.34
2017-06-17T00:22:16.521Z,64.34
2017-06-17T00:23:16.209Z,63.96
2017-06-17T00:24:16.202Z,64.34
2017-06-17T00:25:16.197Z,64.34
2017-06-17T00:26:16.192Z,64.15
2017-06-17T00:27:16.185Z,64.15
2017-06-17T00:28:16.178Z,64.34
2017-06-17T00:29:16.478Z,64.34
2017-06-17T00:30:16.166Z,64.25
2017-06-17T00:31:16.463Z,64.15
2017-06-17T00:32:16.154Z,63.96
2017-06-17T00:33:16.453Z,64.53
2017-06-17T00:34:16.445Z,64.72
2017-06-17T00:35:16.439Z,63.96
2017-06-17T00:36:16.433Z,64.05
2017-06-17T00:37:16.452Z,64.25
2017-06-17T00:38:16.426Z,64.05
2017-06-17T00:39:16.416Z,64.91
2017-06-17T00:40:16.408Z,64.53
2017-06-17T00:41:16.402Z,64.62
2017-06-17T00:42:16.396Z,64.43
2017-06-17T00:43:16.390Z,64.53
2017-06-17T00:44:16.384Z,64.43
2017-06-17T00:45:16.380Z,64.43
2017-06-17T00:46:16.371Z,64.34
2017-06-17T00:47:16.365Z,65.1
2017-06-17T00:48:16.361Z,65.1
2017-06-17T00:49:16.352Z,64.72
2017-06-17T00:50:16.046Z,65.01
2017-06-17T00:51:16.341Z,64.72
2017-06-17T00:52:16.335Z,64.43
2017-06-17T00:53:16.330Z,64.62
2017-06-17T00:54:16.322Z,64.62
2017-06-17T00:55:16.320Z,64.53
2017-06-17T00:56:16.311Z,64.62
2017-06-17T00:57:16.304Z,64.62
2017-06-17T00:58:16.298Z,64.62
2017-06-17T00:59:16.295Z,65.1
2017-06-17T01:00:16.287Z,64.81
2017-06-17T01:01:16.280Z,65.1
2017-06-17T01:02:15.971Z,64.72
2017-06-17T01:03:16.268Z,64.81
2017-06-17T01:04:16.261Z,64.72
2017-06-17T01:05:16.255Z,65.01
2017-06-17T01:06:16.250Z,65.1
2017-06-17T01:07:16.244Z,64.81
2017-06-17T01:08:16.236Z,64.81
2017-06-17T01:09:16.232Z,65.1
2017-06-17T01:10:16.230Z,65.3
2017-06-17T01:11:16.218Z,65.39
2017-06-17T01:12:16.212Z,65.39
2017-06-17T01:13:16.205Z,65.39
2017-06-17T01:14:16.200Z,65.1
2017-06-17T01:15:16.193Z,65.1
2017-06-17T01:16:16.188Z,65.58
2017-06-17T01:17:16.181Z,65.39
2017-06-17T01:18:16.176Z,64.91
2017-06-17T01:19:16.171Z,65.01
2017-06-17T01:20:16.165Z,64.91
2017-06-17T01:21:16.158Z,65.39
2017-06-17T01:22:16.152Z,65.39
2017-06-17T01:23:16.144Z,65.3
2017-06-17T01:24:16.139Z,65.48
2017-06-17T01:25:16.133Z,64.91
2017-06-17T01:26:16.130Z,65.39
2017-06-17T01:27:16.119Z,65.39
2017-06-17T01:28:16.114Z,65.3
2017-06-17T01:29:16.107Z,65.01
2017-06-17T01:30:16.101Z,65.48
2017-06-17T01:31:16.095Z,65.48
2017-06-17T01:32:16.089Z,65.39
2017-06-17T01:33:16.082Z,65.39
2017-06-17T01:34:16.076Z,65.17
2017-06-17T01:35:16.069Z,65.26
2017-06-17T01:36:16.064Z,65.26
2017-06-17T01:37:16.056Z,64.91
2017-06-17T01:38:16.051Z,65.17
2017-06-17T01:39:16.045Z,65.17
2017-06-17T01:40:16.038Z,65.17
2017-06-17T01:41:16.031Z,65.58
2017-06-17T01:42:16.025Z,64.97
2017-06-17T01:43:16.019Z,65.17
2017-06-17T01:44:16.012Z,65.07
2017-06-17T01:45:16.007Z,65.3
2017-06-17T01:46:16.001Z,65.2
2017-06-17T01:47:15.996Z,65.2
2017-06-17T01:48:15.987Z,65.39
2017-06-17T01:49:15.982Z,65.39
2017-06-17T01:50:15.974Z,65.3
2017-06-17T01:51:15.970Z,65.1
2017-06-17T01:52:15.966Z,65.48
2017-06-17T01:53:15.959Z,65.01
2017-06-17T01:54:15.952Z,65.39
2017-06-17T01:55:15.945Z,64.91
2017-06-17T01:56:15.939Z,64.72
2017-06-17T01:57:15.934Z,65.3
2017-06-17T01:58:15.927Z,64.15
2017-06-17T01:59:15.921Z,64.53
2017-06-17T02:00:15.915Z,64.05
2017-06-17T02:01:15.907Z,64.25
2017-06-17T02:02:15.901Z,64.15
2017-06-17T02:03:15.896Z,63.96
2017-06-17T02:04:15.889Z,64.53
2017-06-17T02:05:15.886Z,64.15
2017-06-17T02:06:15.880Z,64.05
2017-06-17T02:07:15.873Z,64.43
2017-06-17T02:08:15.864Z,64.43
2017-06-17T02:09:15.879Z,64.37
2017-06-17T02:10:15.551Z,64.37
2017-06-17T02:11:15.545Z,63.89
2017-06-17T02:12:15.842Z,63.99
2017-06-17T02:13:15.835Z,64.18
2017-06-17T02:14:15.828Z,63.8
2017-06-17T02:15:15.521Z,63.89
2017-06-17T02:16:15.514Z,63.6
2017-06-17T02:17:15.812Z,63.42
2017-06-17T02:18:15.804Z,63.32
2017-06-17T02:19:15.799Z,63.26
2017-06-17T02:20:15.794Z,63.45
2017-06-17T02:21:15.786Z,63.64
2017-06-17T02:22:15.784Z,63.45
2017-06-17T02:23:15.775Z,63.54
2017-06-17T02:24:15.769Z,63.16
2017-06-17T02:25:15.459Z,63.16
2017-06-17T02:26:15.758Z,63.26
2017-06-17T02:27:15.752Z,63.35
2017-06-17T02:28:15.748Z,63.16
2017-06-17T02:29:15.740Z,62.68
2017-06-17T02:30:15.736Z,62.59
2017-06-17T02:31:15.730Z,62.78
2017-06-17T02:32:15.724Z,62.9
2017-06-17T02:33:15.717Z,63
2017-06-17T02:34:16.018Z,62.9
2017-06-17T02:35:15.708Z,62.71
2017-06-17T02:36:15.701Z,62.9
2017-06-17T02:37:15.696Z,62.9
2017-06-17T02:38:15.691Z,63.1
2017-06-17T02:39:15.686Z,63
2017-06-17T02:40:15.679Z,63.1
2017-06-17T02:41:15.674Z,62.9
2017-06-17T02:42:15.668Z,63.1
2017-06-17T02:43:15.664Z,63.29
2017-06-17T02:44:15.659Z,63.1
2017-06-17T02:45:15.653Z,63
2017-06-17T02:46:15.343Z,62.9
2017-06-17T02:47:15.642Z,63.19
2017-06-17T02:48:15.635Z,62.71
2017-06-17T02:49:15.634Z,62.62
2017-06-17T02:50:15.625Z,62.52
2017-06-17T02:51:15.620Z,62.14
2017-06-17T02:52:15.614Z,62.81
2017-06-17T02:53:15.610Z,62.62
2017-06-17T02:54:15.602Z,62.81
2017-06-17T02:55:15.599Z,62.43
2017-06-17T02:56:15.595Z,62.52
2017-06-17T02:57:15.587Z,62.43
2017-06-17T02:58:15.278Z,62.71
2017-06-17T02:59:15.579Z,62.71
2017-06-17T03:00:15.572Z,62.62
2017-06-17T03:01:15.567Z,62.62
2017-06-17T03:02:15.561Z,62.71
2017-06-17T03:03:15.256Z,62.62
2017-06-17T03:04:15.552Z,62.62
2017-06-17T03:05:15.546Z,62.74
2017-06-17T03:06:15.540Z,62.62
2017-06-17T03:07:15.537Z,62.62
2017-06-17T03:08:15.530Z,62.52
2017-06-17T03:09:15.526Z,62.52
2017-06-17T03:10:15.519Z,62.71
2017-06-17T03:11:15.514Z,62.52
2017-06-17T03:12:15.511Z,62.52
2017-06-17T03:13:15.504Z,62.74
2017-06-17T03:14:15.498Z,62.52
2017-06-17T03:15:15.499Z,62.65
2017-06-17T03:16:15.488Z,62.46
2017-06-17T03:17:15.487Z,62.55
2017-06-17T03:18:15.478Z,62.65
2017-06-17T03:19:15.472Z,62.46
2017-06-17T03:20:15.472Z,62.55
2017-06-17T03:21:15.462Z,62.17
2017-06-17T03:22:15.462Z,62.46
2017-06-17T03:23:15.453Z,62.46
2017-06-17T03:24:15.446Z,62.65
2017-06-17T03:25:15.442Z,62.04
2017-06-17T03:26:15.437Z,62.94
2017-06-17T03:27:15.433Z,62.27
2017-06-17T03:28:15.428Z,62.27
2017-06-17T03:29:15.422Z,62.62
2017-06-17T03:30:15.419Z,62.84
2017-06-17T03:31:15.413Z,62.37
2017-06-17T03:32:15.407Z,62.65
2017-06-17T03:33:15.409Z,62.43
2017-06-17T03:34:15.399Z,62.37
2017-06-17T03:35:15.400Z,62.52
2017-06-17T03:36:15.385Z,62.74
2017-06-17T03:37:15.380Z,62.46
2017-06-17T03:38:15.377Z,62.37
2017-06-17T03:39:15.371Z,62.55
2017-06-17T03:40:15.367Z,61.88
2017-06-17T03:41:15.360Z,62.08
2017-06-17T03:42:15.356Z,61.88
2017-06-17T03:43:15.351Z,62.17
2017-06-17T03:44:15.346Z,62.08
2017-06-17T03:45:15.037Z,62.46
2017-06-17T03:46:15.032Z,61.79
2017-06-17T03:47:15.331Z,62.27
2017-06-17T03:48:15.324Z,61.88
2017-06-17T03:49:15.322Z,62.08
2017-06-17T03:50:15.316Z,62.17
2017-06-17T03:51:15.310Z,62.17
2017-06-17T03:52:15.305Z,61.98
2017-06-17T03:53:15.300Z,61.88
2017-06-17T03:54:15.295Z,61.79
2017-06-17T03:55:15.321Z,61.79
2017-06-17T03:56:15.285Z,61.88
2017-06-17T03:57:15.282Z,62.27
2017-06-17T03:58:15.279Z,61.88
2017-06-17T03:59:15.271Z,61.88
2017-06-17T04:00:15.267Z,61.98
2017-06-17T04:01:15.260Z,61.88
2017-06-17T04:02:15.256Z,62.37
2017-06-17T04:03:15.251Z,61.98
2017-06-17T04:04:15.246Z,61.69
2017-06-17T04:05:15.242Z,62.08
2017-06-17T04:06:15.237Z,62.37
2017-06-17T04:07:15.231Z,61.79
2017-06-17T04:08:15.225Z,61.88
2017-06-17T04:09:15.222Z,61.88
2017-06-17T04:10:15.217Z,62.01
2017-06-17T04:11:15.214Z,61.72
2017-06-17T04:12:15.211Z,62.2
2017-06-17T04:13:15.202Z,62.11
2017-06-17T04:14:15.197Z,62.2
2017-06-17T04:15:15.192Z,62.11
2017-06-17T04:16:15.188Z,62.2
2017-06-17T04:17:15.184Z,62.3
2017-06-17T04:18:15.178Z,61.72
2017-06-17T04:19:15.174Z,62.3
2017-06-17T04:20:15.169Z,62.4
2017-06-17T04:21:15.163Z,62.3
2017-06-17T04:22:15.160Z,62.11
2017-06-17T04:23:15.157Z,62.49
2017-06-17T04:24:14.847Z,62.2
2017-06-17T04:25:15.146Z,62.59
2017-06-17T04:26:15.142Z,62.3
2017-06-17T04:27:15.137Z,62.68
2017-06-17T04:28:15.132Z,62.49
2017-06-17T04:29:15.126Z,62.4
2017-06-17T04:30:15.124Z,62.11
2017-06-17T04:31:15.120Z,61.82
2017-06-17T04:32:15.115Z,61.72
2017-06-17T04:33:15.110Z,62.4
2017-06-17T04:34:15.106Z,61.94
2017-06-17T04:35:14.796Z,61.91
2017-06-17T04:36:15.141Z,61.85
2017-06-17T04:37:15.091Z,61.94
2017-06-17T04:38:15.087Z,61.85
2017-06-17T04:39:15.083Z,61.76
2017-06-17T04:40:15.078Z,61.94
2017-06-17T04:41:15.076Z,62.23
2017-06-17T04:42:15.069Z,61.76
2017-06-17T04:43:15.065Z,62.23
2017-06-17T04:44:15.061Z,62.14
2017-06-17T04:45:15.058Z,62.23
2017-06-17T04:46:15.054Z,61.85
2017-06-17T04:47:15.049Z,62.14
2017-06-17T04:48:15.043Z,62.23
2017-06-17T04:49:15.039Z,61.85
2017-06-17T04:50:15.035Z,62.04
2017-06-17T04:51:15.032Z,62.14
2017-06-17T04:52:15.027Z,62.04
2017-06-17T04:53:14.719Z,62.14
2017-06-17T04:54:15.017Z,62.17
2017-06-17T04:55:14.711Z,61.94
2017-06-17T04:56:15.011Z,61.47
2017-06-17T04:57:15.005Z,62.23
2017-06-17T04:58:15.000Z,62.14
2017-06-17T04:59:14.998Z,62.07
2017-06-17T05:00:14.992Z,61.57
2017-06-17T05:01:14.991Z,62.04
2017-06-17T05:02:14.987Z,62.17
2017-06-17T05:03:14.983Z,62.17
2017-06-17T05:04:14.978Z,61.5
2017-06-17T05:05:14.973Z,62.26
2017-06-17T05:06:14.969Z,61.6
2017-06-17T05:07:14.966Z,61.31
2017-06-17T05:08:14.964Z,61.21
2017-06-17T05:09:14.956Z,61.5
2017-06-17T05:10:14.953Z,61.6
2017-06-17T05:11:14.951Z,61.6
2017-06-17T05:12:14.946Z,61.79
2017-06-17T05:13:14.941Z,61.02
2017-06-17T05:14:14.947Z,62.07
2017-06-17T05:15:14.631Z,61.5
2017-06-17T05:16:14.929Z,61.5
2017-06-17T05:17:14.927Z,61.6
2017-06-17T05:18:14.921Z,61.5
2017-06-17T05:19:14.917Z,61.4
2017-06-17T05:20:14.919Z,61.5
2017-06-17T05:21:14.910Z,61.69
2017-06-17T05:22:14.908Z,61.63
2017-06-17T05:23:14.903Z,61.72
2017-06-17T05:24:14.898Z,61.72
2017-06-17T05:25:14.593Z,61.63
2017-06-17T05:26:14.893Z,61.91
2017-06-17T05:27:14.888Z,61.53
2017-06-17T05:28:14.884Z,61.63
2017-06-17T05:29:14.881Z,61.85
2017-06-17T05:30:14.910Z,61.18
2017-06-17T05:31:14.874Z,61.27
2017-06-17T05:32:14.871Z,61.46
2017-06-17T05:33:14.867Z,61.08
2017-06-17T05:34:14.863Z,61.37
2017-06-17T05:35:14.860Z,61.27
2017-06-17T05:36:14.858Z,61.11
2017-06-17T05:37:14.855Z,61.02
2017-06-17T05:38:14.852Z,61.11
2017-06-17T05:39:14.849Z,61.69
2017-06-17T05:40:14.845Z,61.11
2017-06-17T05:41:14.844Z,60.85
2017-06-17T05:42:14.537Z,61.14
2017-06-17T05:43:14.837Z,61.14
2017-06-17T05:44:14.837Z,60.75
2017-06-17T05:45:14.833Z,60.57
2017-06-17T05:46:14.829Z,60.78
2017-06-17T05:47:14.827Z,60.88
2017-06-17T05:48:14.855Z,61.17
2017-06-17T05:49:14.822Z,60.5
2017-06-17T05:50:14.820Z,60.05
2017-06-17T05:51:14.819Z,60.24
2017-06-17T05:52:14.818Z,60.34
2017-06-17T05:53:14.815Z,59.76
2017-06-17T05:54:14.813Z,59.76
2017-06-17T05:55:14.811Z,59.28
2017-06-17T05:56:14.809Z,59.22
2017-06-17T05:57:14.809Z,59.22
2017-06-17T05:58:14.503Z,59.31
2017-06-17T05:59:14.502Z,59.41
2017-06-17T06:00:14.805Z,59.12
2017-06-17T06:01:14.803Z,59.69
2017-06-17T06:02:14.801Z,59.31
2017-06-17T06:03:14.802Z,59.5
2017-06-17T06:04:14.798Z,59.31
2017-06-17T06:05:14.799Z,59.5
2017-06-17T06:06:14.797Z,58.92
2017-06-17T06:07:14.796Z,58.92
2017-06-17T06:08:14.795Z,58.95
2017-06-17T06:09:14.489Z,58.57
2017-06-17T06:10:14.796Z,58.18
2017-06-17T06:11:14.790Z,58.18
2017-06-17T06:12:14.789Z,58.09
2017-06-17T06:13:14.789Z,57.8
2017-06-17T06:14:14.787Z,57.9
2017-06-17T06:15:14.786Z,57.99
2017-06-17T06:16:14.786Z,57.99
2017-06-17T06:17:14.784Z,57.8
2017-06-17T06:18:14.783Z,57.54
2017-06-17T06:19:14.782Z,57.64
2017-06-17T06:20:14.789Z,57.25
2017-06-17T06:21:14.781Z,56.96
2017-06-17T06:22:14.779Z,57.06
2017-06-17T06:23:14.780Z,56.67
2017-06-17T06:24:14.778Z,57.06
2017-06-17T06:25:14.778Z,57.15
2017-06-17T06:26:14.776Z,56.77
2017-06-17T06:27:14.777Z,56.7
2017-06-17T06:28:14.777Z,56.44
2017-06-17T06:29:14.776Z,56.25
2017-06-17T06:30:14.778Z,56.35
2017-06-17T06:31:14.777Z,54.83
2017-06-17T06:32:14.779Z,54.93
2017-06-17T06:33:14.777Z,54.35
2017-06-17T06:34:14.474Z,54.25
2017-06-17T06:35:14.778Z,54.83
2017-06-17T06:36:14.780Z,54.93
2017-06-17T06:37:14.781Z,54.44
2017-06-17T06:38:14.780Z,54.93
2017-06-17T06:39:14.782Z,54.35
2017-06-17T06:40:14.782Z,54.74
2017-06-17T06:41:14.782Z,54.44
2017-06-17T06:42:14.782Z,54.83
2017-06-17T06:43:14.783Z,55.02
2017-06-17T06:44:14.782Z,54.8
2017-06-17T06:45:14.783Z,54.8
2017-06-17T06:46:14.783Z,55.19
2017-06-17T06:47:14.783Z,55.09
2017-06-17T06:48:14.783Z,56.22
2017-06-17T06:49:14.783Z,55.55
2017-06-17T06:50:14.786Z,56.03
2017-06-17T06:51:14.783Z,56.58
2017-06-17T06:52:14.783Z,56.58
2017-06-17T06:53:14.781Z,55.98
2017-06-17T06:54:14.781Z,56.36
2017-06-17T06:55:14.779Z,56.65
2017-06-17T06:56:14.779Z,57.03
2017-06-17T06:57:14.474Z,56.93
2017-06-17T06:58:14.777Z,57.42
2017-06-17T06:59:14.780Z,57.42
2017-06-17T07:02:14.771Z,56.84
2017-06-17T07:03:14.769Z,56.81
2017-06-17T07:04:14.769Z,56.91
2017-06-17T07:05:14.767Z,56.62
2017-06-17T07:06:14.765Z,56.71
2017-06-17T07:07:14.763Z,57.2
2017-06-17T07:08:14.761Z,57.2
2017-06-17T07:09:14.761Z,57.2
2017-06-17T07:10:14.758Z,57.1
2017-06-17T07:11:14.758Z,57.39
2017-06-17T07:12:14.757Z,57
2017-06-17T07:13:14.756Z,57.03
2017-06-17T07:14:14.754Z,57
2017-06-17T07:15:14.751Z,57.1
2017-06-17T07:16:14.751Z,57.8
2017-06-17T07:17:14.747Z,57.22
2017-06-17T07:18:14.749Z,57.51
2017-06-17T07:19:14.746Z,57.42
2017-06-17T07:20:14.743Z,57.51
2017-06-17T07:21:14.741Z,57.42
2017-06-17T07:22:14.739Z,57.22
2017-06-17T07:23:14.739Z,57.03
2017-06-17T07:24:14.737Z,57.13
2017-06-17T07:25:14.432Z,57.68
2017-06-17T07:26:14.430Z,57.68
2017-06-17T07:27:14.732Z,57.2
2017-06-17T07:28:14.729Z,57.48
2017-06-17T07:29:14.427Z,57.77
2017-06-17T07:30:14.728Z,57.97
2017-06-17T07:31:14.726Z,57.77
2017-06-17T07:32:14.723Z,57.45
2017-06-17T07:33:14.720Z,57.39
2017-06-17T07:35:14.718Z,57.29
2017-06-17T07:36:14.715Z,57.39
2017-06-17T07:37:14.715Z,56.16
2017-06-17T07:38:14.715Z,56.04
2017-06-17T07:39:14.712Z,56.07
2017-06-17T07:40:14.709Z,55.85
2017-06-17T07:41:14.405Z,55.49
2017-06-17T07:42:14.705Z,55.11
2017-06-17T07:43:14.703Z,55.3
2017-06-17T07:44:14.703Z,54.72
2017-06-17T07:45:14.399Z,54.63
2017-06-17T07:46:14.398Z,54.82
2017-06-17T07:47:14.699Z,54.53
2017-06-17T07:48:14.396Z,55.11
2017-06-17T07:49:14.698Z,55.01
2017-06-17T07:50:14.393Z,55.11
2017-06-17T07:51:14.392Z,54.82
2017-06-17T07:52:14.714Z,54.65
2017-06-17T07:53:14.389Z,54.85
2017-06-17T07:54:14.690Z,54.75
2017-06-17T07:55:14.388Z,54.65
2017-06-17T07:56:14.692Z,54.85
2017-06-17T07:57:14.687Z,55.04
2017-06-17T07:58:14.687Z,54.85
2017-06-17T07:59:14.687Z,54.94
2017-06-17T08:00:14.686Z,55.23
2017-06-17T08:01:14.685Z,55.23
2017-06-17T08:02:14.684Z,55.23
2017-06-17T08:03:14.682Z,55.13
2017-06-17T08:04:14.380Z,55.13
2017-06-17T08:05:14.681Z,55.04
2017-06-17T08:06:14.681Z,54.85
2017-06-17T08:07:14.680Z,54.17
2017-06-17T08:08:14.679Z,52.56
2017-06-17T08:09:14.677Z,52.66
2017-06-17T08:10:14.676Z,52.37
2017-06-17T08:11:14.676Z,52.27
2017-06-17T08:12:14.677Z,52.37
2017-06-17T08:13:14.676Z,51.5
2017-06-17T08:14:14.675Z,51.7
2017-06-17T08:15:14.673Z,50.66
2017-06-17T08:16:14.675Z,50.47
2017-06-17T08:17:14.676Z,49.63
2017-06-17T08:18:14.678Z,49.82
2017-06-17T08:19:14.680Z,50.01
2017-06-17T08:20:14.679Z,47.44
2017-06-17T08:21:14.680Z,46.88
2017-06-17T08:22:14.683Z,47.17
2017-06-17T08:23:14.686Z,46.23
2017-06-17T08:24:14.384Z,46.71
2017-06-17T08:25:14.691Z,47.19
2017-06-17T08:26:14.692Z,46.61
2017-06-17T08:27:14.698Z,46.71
2017-06-17T08:28:14.700Z,46.73
2017-06-17T08:29:14.704Z,45.86
2017-06-17T08:30:15.005Z,45.76
2017-06-17T08:31:15.517Z,46.06
2017-06-17T08:32:14.710Z,45.76
2017-06-17T08:33:14.713Z,46.33
2017-06-17T08:34:14.715Z,46.42
2017-06-17T08:35:14.718Z,46.51
2017-06-17T08:36:14.721Z,46.81
2017-06-17T08:37:14.728Z,46.25
2017-06-17T08:38:14.727Z,46.25
2017-06-17T08:39:14.730Z,46.33
2017-06-17T08:40:14.427Z,45.67
2017-06-17T08:41:14.734Z,45.26
2017-06-17T08:42:14.734Z,45.55
2017-06-17T08:43:14.736Z,45.94
2017-06-17T08:44:14.737Z,45.92
2017-06-17T08:45:14.744Z,45.92
2017-06-17T08:46:14.743Z,46.2
2017-06-17T08:47:14.748Z,46.23
2017-06-17T08:48:14.748Z,45.65
2017-06-17T08:49:14.751Z,44.59
2017-06-17T08:50:14.756Z,44.42
2017-06-17T08:51:14.759Z,45
2017-06-17T08:52:14.763Z,44.51
2017-06-17T08:53:14.768Z,44.32
2017-06-17T08:54:14.771Z,43.95
2017-06-17T08:55:14.777Z,43.76
2017-06-17T08:56:14.779Z,44.05
2017-06-17T08:57:14.785Z,42.79
2017-06-17T08:58:14.787Z,42.7
2017-06-17T08:59:14.790Z,43.47
2017-06-17T09:00:14.795Z,43.66
2017-06-17T09:01:14.799Z,43.08
2017-06-17T09:02:14.805Z,43.66
2017-06-17T09:03:14.805Z,43.66
2017-06-17T09:04:14.812Z,43.28
2017-06-17T09:05:14.814Z,42.14
2017-06-17T09:06:14.816Z,42.7
2017-06-17T09:07:14.826Z,44.15
2017-06-17T09:08:14.824Z,44.32
2017-06-17T09:09:14.827Z,44.51
2017-06-17T09:10:14.526Z,44.22
2017-06-17T09:11:14.832Z,44.43
2017-06-17T09:12:14.835Z,44.8
2017-06-17T09:13:14.837Z,44.7
2017-06-17T09:14:14.840Z,45.18
2017-06-17T09:15:14.846Z,45.28
2017-06-17T09:16:14.844Z,45.67
2017-06-17T09:17:14.847Z,45.86
2017-06-17T09:18:14.848Z,46.06
2017-06-17T09:19:14.851Z,46.64
2017-06-17T09:20:14.856Z,47
2017-06-17T09:21:14.858Z,47
2017-06-17T09:22:14.857Z,47.09
2017-06-17T09:23:14.860Z,46.9
2017-06-17T09:24:14.557Z,46.9
2017-06-17T09:25:14.862Z,47.48
2017-06-17T09:26:14.862Z,47.19
2017-06-17T09:27:14.867Z,47.38
2017-06-17T09:28:14.867Z,47.17
2017-06-17T09:29:14.868Z,47.58
2017-06-17T09:30:14.868Z,47.09
2017-06-17T09:31:14.870Z,47
2017-06-17T09:32:14.870Z,47.36
2017-06-17T09:33:14.870Z,47.27
2017-06-17T09:34:14.874Z,47.29
2017-06-17T09:35:14.875Z,46.9
2017-06-17T09:36:14.891Z,47.19
2017-06-17T09:37:14.877Z,46.9
2017-06-17T09:38:14.878Z,46.51
2017-06-17T09:39:14.879Z,46.03
2017-06-17T09:40:14.881Z,46.15
2017-06-17T09:41:14.887Z,45.96
2017-06-17T09:42:14.584Z,45.38
2017-06-17T09:43:14.885Z,44.6
2017-06-17T09:44:14.887Z,44.8
2017-06-17T09:45:14.890Z,44.8
2017-06-17T09:46:14.890Z,45.67
2017-06-17T09:47:14.892Z,45.48
2017-06-17T09:48:14.894Z,45.57
2017-06-17T09:49:14.896Z,45.18
2017-06-17T09:50:14.897Z,45.67
2017-06-17T09:51:14.900Z,45.18
2017-06-17T09:52:14.901Z,44.92
2017-06-17T09:53:14.905Z,44.53
2017-06-17T09:54:14.906Z,44.82
2017-06-17T09:55:14.908Z,44.15
2017-06-17T09:56:14.910Z,43.18
2017-06-17T09:57:14.910Z,44.12
2017-06-17T09:58:14.912Z,44.6
2017-06-17T09:59:14.913Z,44.51
2017-06-17T10:00:14.918Z,44.63
2017-06-17T10:01:14.918Z,44.53
2017-06-17T10:02:14.920Z,43.76
2017-06-17T10:03:14.923Z,42.62
2017-06-17T10:04:14.927Z,41.85
2017-06-17T10:05:14.926Z,42.93
2017-06-17T10:06:14.626Z,42.65
2017-06-17T10:07:14.932Z,42.83
2017-06-17T10:08:14.933Z,42.83
2017-06-17T10:09:14.936Z,42.55
2017-06-17T10:10:14.939Z,42.74
2017-06-17T10:11:14.940Z,41.77
2017-06-17T10:12:14.946Z,41.94
2017-06-17T10:13:14.947Z,43.28
2017-06-17T10:14:14.950Z,43.84
2017-06-17T10:15:14.649Z,44.42
2017-06-17T10:16:14.954Z,45.75
2017-06-17T10:17:14.653Z,46.23
2017-06-17T10:18:14.655Z,46.2
2017-06-17T10:19:14.655Z,46.23
2017-06-17T10:20:14.659Z,46.13
2017-06-17T10:21:14.966Z,45.94
2017-06-17T10:22:14.966Z,46.03
2017-06-17T10:23:14.969Z,45.09
2017-06-17T10:24:14.974Z,45.28
2017-06-17T10:25:14.975Z,44.63
2017-06-17T10:26:14.674Z,43.95
2017-06-17T10:27:14.978Z,44.15
2017-06-17T10:28:14.979Z,44.15
2017-06-17T10:29:14.983Z,43.78
2017-06-17T10:30:14.985Z,44.07
2017-06-17T10:31:14.988Z,44.07
2017-06-17T10:32:14.691Z,43.03
2017-06-17T10:33:14.992Z,42.07
2017-06-17T10:34:14.994Z,41.7
2017-06-17T10:35:14.998Z,41.02
2017-06-17T10:36:15.000Z,41.02
2017-06-17T10:37:15.004Z,41.04
2017-06-17T10:38:15.005Z,40.05
2017-06-17T10:39:15.009Z,40.83
2017-06-17T10:40:15.012Z,41.97
2017-06-17T10:41:15.014Z,41.67
2017-06-17T10:42:15.017Z,41.85
2017-06-17T10:43:15.020Z,42.14
2017-06-17T10:44:14.720Z,42.31
2017-06-17T10:45:15.026Z,42.79
2017-06-17T10:46:15.032Z,43.18
2017-06-17T10:47:15.030Z,44.12
2017-06-17T10:48:15.033Z,44.7
2017-06-17T10:49:15.036Z,44.22
2017-06-17T10:50:15.037Z,44.53
2017-06-17T10:51:15.039Z,44.51
2017-06-17T10:52:15.041Z,44.53
2017-06-17T10:53:15.045Z,44.63
2017-06-17T10:54:15.046Z,45.11
2017-06-17T10:55:15.050Z,45.28
2017-06-17T10:56:15.050Z,45.57
2017-06-17T10:57:15.054Z,45.48
2017-06-17T10:58:15.053Z,45.38
2017-06-17T10:59:15.055Z,45.96
2017-06-17T11:00:15.056Z,46.34
2017-06-17T11:01:15.059Z,46.34
2017-06-17T11:02:15.061Z,46.44
2017-06-17T11:03:15.062Z,46.25
2017-06-17T11:04:15.061Z,46.15
2017-06-17T11:05:15.067Z,46.25
2017-06-17T11:06:15.069Z,45.89
2017-06-17T11:07:15.068Z,45.11
2017-06-17T11:08:15.070Z,44.15
2017-06-17T11:09:15.070Z,44.53
2017-06-17T11:10:15.072Z,45.01
2017-06-17T11:11:14.773Z,44.8
2017-06-17T11:12:15.079Z,44.42
2017-06-17T11:13:15.078Z,45.18
2017-06-17T11:14:15.079Z,45.57
2017-06-17T11:15:15.082Z,45.09
2017-06-17T11:16:15.082Z,44.97
2017-06-17T11:17:15.084Z,45.76
2017-06-17T11:18:15.089Z,45.38
2017-06-17T11:19:15.087Z,45.75
2017-06-17T11:20:15.088Z,46.13
2017-06-17T11:21:15.094Z,46.71
2017-06-17T11:22:15.114Z,46.81
2017-06-17T11:23:14.790Z,46.13
2017-06-17T11:24:14.793Z,46.03
2017-06-17T11:25:15.096Z,46.33
2017-06-17T11:26:15.099Z,47.02
2017-06-17T11:27:15.100Z,47.09
2017-06-17T11:28:15.102Z,46.9
2017-06-17T11:29:15.102Z,47.09
2017-06-17T11:30:15.103Z,47.09
2017-06-17T11:31:15.108Z,46.9
2017-06-17T11:32:15.104Z,47.09
2017-06-17T11:33:15.110Z,47.58
2017-06-17T11:34:15.110Z,47.38
2017-06-17T11:35:15.110Z,46.71
2017-06-17T11:36:15.112Z,47.58
2017-06-17T11:37:15.112Z,47.67
2017-06-17T11:38:15.113Z,47.12
2017-06-17T11:39:15.115Z,46.92
2017-06-17T11:40:15.115Z,47.12
2017-06-17T11:41:14.812Z,46.92
2017-06-17T11:42:15.117Z,46.83
2017-06-17T11:43:15.119Z,47.12
2017-06-17T11:44:15.119Z,47.8
2017-06-17T11:45:15.120Z,46.92
2017-06-17T11:46:15.123Z,47.41
2017-06-17T11:47:15.122Z,47.02
2017-06-17T11:48:15.123Z,47.12
2017-06-17T11:49:15.124Z,46.92
2017-06-17T11:50:15.126Z,46.44
2017-06-17T11:51:15.126Z,46.34
2017-06-17T11:52:15.129Z,46.15
2017-06-17T11:53:15.132Z,46.37
2017-06-17T11:54:14.826Z,46.37
2017-06-17T11:55:15.135Z,46.34
2017-06-17T11:56:15.133Z,46.44
2017-06-17T11:57:15.138Z,47.02
2017-06-17T11:58:14.831Z,46.95
2017-06-17T11:59:15.138Z,46.66
2017-06-17T12:00:15.137Z,46.27
2017-06-17T12:01:15.140Z,45.42
2017-06-17T12:02:15.139Z,45.04
2017-06-17T12:03:15.145Z,44.84
2017-06-17T12:04:15.144Z,44.36
2017-06-17T12:05:15.143Z,43.98
2017-06-17T12:06:15.146Z,43.51
2017-06-17T12:07:15.149Z,43.32
2017-06-17T12:08:15.151Z,44.02
2017-06-17T12:09:15.151Z,44.21
2017-06-17T12:10:14.850Z,43.82
2017-06-17T12:11:15.157Z,42.86
2017-06-17T12:12:15.162Z,41.91
2017-06-17T12:13:15.165Z,41.42
2017-06-17T12:14:15.162Z,41.33
2017-06-17T12:15:15.167Z,41.25
2017-06-17T12:16:15.170Z,40.77
2017-06-17T12:17:15.176Z,41.06
2017-06-17T12:18:15.176Z,40.86
2017-06-17T12:19:15.177Z,38.93
2017-06-17T12:20:14.877Z,40.38
2017-06-17T12:21:15.183Z,40.67
2017-06-17T12:22:15.187Z,40.58
2017-06-17T12:23:14.887Z,40
2017-06-17T12:24:15.191Z,39.32
2017-06-17T12:25:15.196Z,39.62
2017-06-17T12:26:14.898Z,40.11
2017-06-17T12:27:15.202Z,40.11
2017-06-17T12:28:15.207Z,39.65
2017-06-17T12:29:14.906Z,38.68
2017-06-17T12:30:15.214Z,38.39
2017-06-17T12:31:15.216Z,38.6
2017-06-17T12:32:15.220Z,38.31
2017-06-17T12:33:15.224Z,39.18
2017-06-17T12:34:15.230Z,39.18
2017-06-17T12:35:15.233Z,39.37
2017-06-17T12:36:15.241Z,38.6
2017-06-17T12:37:14.939Z,37.74
2017-06-17T12:38:15.243Z,37.65
2017-06-17T12:39:14.946Z,37.45
2017-06-17T12:40:15.255Z,37.16
2017-06-17T12:41:15.257Z,37.55
2017-06-17T12:42:15.262Z,37.07
2017-06-17T12:43:15.265Z,37.84
2017-06-17T12:44:15.270Z,37.65
2017-06-17T12:45:15.273Z,37.84
2017-06-17T12:46:14.976Z,37.94
2017-06-17T12:47:15.285Z,36.87
2017-06-17T12:48:15.288Z,37.45
2017-06-17T12:49:15.292Z,37.55
2017-06-17T12:50:14.993Z,37.84
2017-06-17T12:51:15.303Z,37.74
2017-06-17T12:52:15.305Z,37.84
2017-06-17T12:53:15.006Z,37.55
2017-06-17T12:54:15.016Z,36
2017-06-17T12:55:15.319Z,34.85
2017-06-17T12:56:15.020Z,34.83
2017-06-17T12:57:15.024Z,36.48
2017-06-17T12:58:15.029Z,37.26
2017-06-17T12:59:15.035Z,37.26
2017-06-17T13:00:15.341Z,36.19
2017-06-17T13:01:15.042Z,36.38
2017-06-17T13:02:15.047Z,36.19